Salete, Brazil
Current Conditions -  °F | °C
As of 5:00 PM on Friday 21 Nov 2014 (Local Time) from SBNF Reporting Station
Broken Clouds Broken Clouds  
Wind Chill: 77°   Ceiling: 2000
Heat Index: 78°   Visibility: 6mi
Dew Point: 72°   Wind: 14mph
Humidity: 83%   Direction: 60°ENE
Pressure: 29.85"   Gusts: NA
Location:  26.98°S, 50°W
Report Text: SBNF 211900Z 06012KT 9999 FEW012 BKN020 25/22 Q1011
Loading
Personal Weather Stations






























Interactive Weather Map New forecast layout! Learn more

10-Day Weather Forecast

Advertisements
Track Severe Weather on mobile